Time;durP1;ratioP1;P1;durP2;ratioP2;P2;SDS_P1;SDS_P2;PMS_P1;PMS_P2;Temp;Humidity;BMP_temperature;BMP_pressure;BME280_temperature;BME280_humidity;BME280_pressure;Samples;Min_cycle;Max_cycle;Signal;HPM_P1;HPM_P2
2023/09/22 00:10:12;;;;;;;5.47;4.57;;;17.50;99.90;;;;;;4717223;29;20594;-85
2023/09/22 00:14:42;;;;;;;5.50;4.80;;;17.40;99.90;;;;;;4665938;29;20719;-87
2023/09/22 00:40:26;;;;;;;6.17;4.90;;;17.10;99.90;;;;;;4718429;29;20315;-86
2023/09/22 01:05:47;;;;;;;6.37;4.30;;;16.80;99.90;;;;;;4597372;30;20292;-82
2023/09/22 01:36:15;;;;;;;6.90;4.47;;;16.40;99.90;;;;;;4689943;29;20388;-83
2023/09/22 02:01:19;;;;;;;7.37;4.97;;;16.20;99.90;;;;;;4716759;29;20551;-85
2023/09/22 02:22:02;;;;;;;6.30;4.80;;;16.00;99.90;;;;;;4625445;30;20576;-84
2023/09/22 02:26:21;;;;;;;6.10;4.63;;;16.00;99.90;;;;;;4576970;30;20406;-86
2023/09/22 02:52:17;;;;;;;5.60;5.00;;;15.90;99.90;;;;;;4827140;29;20309;-84
2023/09/22 03:12:40;;;;;;;6.10;4.50;;;16.00;99.90;;;;;;4828887;28;20197;-84
2023/09/22 03:47:42;;;;;;;6.57;4.57;;;15.80;99.90;;;;;;4908982;29;20498;-83
2023/09/22 04:23:14;;;;;;;7.17;5.83;;;15.70;99.90;;;;;;4857974;29;20250;-85
2023/09/22 04:57:25;;;;;;;5.43;4.80;;;16.10;99.90;;;;;;4627647;30;20219;-86
2023/09/22 05:17:50;;;;;;;6.33;4.70;;;16.50;99.90;;;;;;4585954;30;20538;-83
2023/09/22 05:37:52;;;;;;;7.83;4.73;;;16.80;99.90;;;;;;4493404;30;20218;-85
2023/09/22 06:08:30;;;;;;;5.80;4.77;;;18.20;99.90;;;;;;4520417;30;20341;-85
2023/09/22 06:33:55;;;;;;;5.37;4.73;;;19.70;98.90;;;;;;4753993;29;20263;-86
2023/09/22 06:59:12;;;;;;;7.70;5.00;;;20.50;96.50;;;;;;4748126;29;20230;-85
2023/09/22 07:19:12;;;;;;;7.93;5.20;;;21.10;94.10;;;;;;4720870;29;20592;-84
2023/09/22 07:49:36;;;;;;;6.90;5.10;;;21.70;93.00;;;;;;4680064;29;20379;-80
2023/09/22 08:14:45;;;;;;;6.53;5.82;;;22.10;92.00;;;;;;4630524;29;20231;-86
2023/09/22 08:30:31;;;;;;;9.38;5.53;;;22.20;91.70;;;;;;4560945;30;20230;-85
2023/09/22 09:05:28;;;;;;;9.63;6.20;;;23.30;89.40;;;;;;4559767;30;20391;-87
2023/09/22 09:26:04;;;;;;;7.25;5.95;;;24.10;86.10;;;;;;4506083;30;20679;-86
2023/09/22 09:51:39;;;;;;;7.97;5.95;;;24.20;84.20;;;;;;4672729;30;20945;-86
2023/09/22 10:22:11;;;;;;;8.05;6.20;;;24.70;82.70;;;;;;4640997;30;20291;-86
2023/09/22 10:42:17;;;;;;;9.50;5.50;;;25.40;81.00;;;;;;4597643;30;20234;-86
2023/09/22 11:07:56;;;;;;;10.55;5.70;;;25.10;82.20;;;;;;4787246;29;20510;-87
2023/09/22 11:33:20;;;;;;;10.05;6.32;;;25.30;81.40;;;;;;4863690;28;20215;-86
2023/09/22 11:37:40;;;;;;;8.48;6.70;;;25.40;81.70;;;;;;4786258;29;20490;-87
2023/09/22 12:03:32;;;;;;;7.85;5.80;;;25.20;80.30;;;;;;4853058;28;20388;-84
2023/09/22 12:23:33;;;;;;;9.60;5.63;;;25.80;80.30;;;;;;4805183;29;20729;-84
2023/09/22 12:49:11;;;;;;;6.75;5.93;;;25.80;77.90;;;;;;4836030;29;20750;-87
2023/09/22 13:14:27;;;;;;;9.50;6.13;;;25.40;79.80;;;;;;4718458;29;21695;-84
2023/09/22 13:45:10;;;;;;;8.93;5.78;;;25.60;82.10;;;;;;4800687;28;20215;-84
2023/09/22 14:15:35;;;;;;;7.03;5.63;;;25.60;80.80;;;;;;4822833;28;20708;-84
2023/09/22 14:40:57;;;;;;;8.07;6.13;;;25.30;81.80;;;;;;4721136;29;20830;-84
2023/09/22 15:16:26;;;;;;;9.88;6.45;;;24.30;84.50;;;;;;4779678;29;20246;-85
2023/09/22 15:46:54;;;;;;;6.57;5.93;;;24.00;87.70;;;;;;4840229;29;20591;-83
2023/09/22 16:07:14;;;;;;;8.93;6.18;;;23.60;90.10;;;;;;4728725;29;20302;-85
2023/09/22 17:12:50;;;;;;;9.30;6.35;;;22.60;94.30;;;;;;4656839;30;20390;-86
2023/09/22 17:58:45;;;;;;;12.32;7.18;;;22.50;99.90;;;;;;4947040;28;20193;-88
2023/09/22 18:39:19;;;;;;;14.75;9.13;;;21.50;99.90;;;;;;4866969;28;20287;-87
2023/09/22 19:04:24;;;;;;;16.30;11.18;;;21.10;99.90;;;;;;4766246;29;20588;-85
2023/09/22 19:50:25;;;;;;;14.38;10.32;;;19.90;99.90;;;;;;4653468;30;20262;-86
2023/09/22 20:20:18;;;;;;;14.77;11.30;;;19.30;99.90;;;;;;4665567;30;20964;-87
2023/09/22 20:51:17;;;;;;;16.90;12.53;;;18.40;99.90;;;;;;4742045;29;20211;-88
2023/09/22 20:55:40;;;;;;;15.20;12.30;;;18.50;99.90;;;;;;4623633;30;20617;-85
2023/09/22 21:16:20;;;;;;;14.60;12.03;;;18.80;99.90;;;;;;4790242;29;20532;-87
2023/09/22 21:36:36;;;;;;;15.10;11.60;;;19.00;99.90;;;;;;4838949;29;20521;-86
2023/09/22 22:07:10;;;;;;;15.73;12.77;;;19.20;99.90;;;;;;4877764;28;20900;-84
2023/09/22 22:37:45;;;;;;;15.00;12.73;;;19.30;99.90;;;;;;4763207;29;20297;-85
2023/09/22 22:57:47;;;;;;;18.77;13.20;;;19.00;99.90;;;;;;4621368;30;20949;-86
2023/09/22 23:23:13;;;;;;;16.80;12.90;;;19.10;99.90;;;;;;4782020;29;20405;-86
2023/09/22 23:58:30;;;;;;;13.40;11.33;;;19.00;99.90;;;;;;4812518;28;20801;-84
